sensor_id;sensor_type;location;lat;lon;timestamp;P1;durP1;ratioP1;P2;durP2;ratioP2
7783;SDS011;19359;51.402;6.778;2023-04-01T00:01:22;3.72;;;0.50;;
7783;SDS011;19359;51.402;6.778;2023-04-01T00:03:49;3.28;;;0.50;;
7783;SDS011;19359;51.402;6.778;2023-04-01T00:06:17;0.88;;;0.47;;
7783;SDS011;19359;51.402;6.778;2023-04-01T00:08:46;9.40;;;0.30;;
7783;SDS011;19359;51.402;6.778;2023-04-01T00:11:13;2.80;;;0.85;;
7783;SDS011;19359;51.402;6.778;2023-04-01T00:13:41;1.13;;;0.40;;
7783;SDS011;19359;51.402;6.778;2023-04-01T00:16:08;2.40;;;0.40;;
7783;SDS011;19359;51.402;6.778;2023-04-01T00:18:35;0.50;;;0.35;;
7783;SDS011;19359;51.402;6.778;2023-04-01T00:21:02;1.25;;;0.30;;
7783;SDS011;19359;51.402;6.778;2023-04-01T00:23:29;2.40;;;0.40;;
7783;SDS011;19359;51.402;6.778;2023-04-01T00:26:00;0.90;;;0.50;;
7783;SDS011;19359;51.402;6.778;2023-04-01T00:28:27;2.20;;;0.22;;
7783;SDS011;19359;51.402;6.778;2023-04-01T00:30:54;0.55;;;0.50;;
7783;SDS011;19359;51.402;6.778;2023-04-01T00:33:21;2.95;;;0.40;;
7783;SDS011;19359;51.402;6.778;2023-04-01T00:35:48;3.28;;;0.30;;
7783;SDS011;19359;51.402;6.778;2023-04-01T00:38:15;1.13;;;0.40;;
7783;SDS011;19359;51.402;6.778;2023-04-01T00:40:44;1.45;;;0.17;;
7783;SDS011;19359;51.402;6.778;2023-04-01T00:43:14;1.85;;;0.30;;
7783;SDS011;19359;51.402;6.778;2023-04-01T00:45:43;1.77;;;0.30;;
7783;SDS011;19359;51.402;6.778;2023-04-01T00:48:13;0.85;;;0.30;;
7783;SDS011;19359;51.402;6.778;2023-04-01T00:50:44;2.00;;;0.30;;
7783;SDS011;19359;51.402;6.778;2023-04-01T00:53:15;1.95;;;0.40;;
7783;SDS011;19359;51.402;6.778;2023-04-01T00:55:44;0.30;;;0.30;;
7783;SDS011;19359;51.402;6.778;2023-04-01T00:58:19;0.30;;;0.30;;
7783;SDS011;19359;51.402;6.778;2023-04-01T01:00:49;0.30;;;0.30;;
7783;SDS011;19359;51.402;6.778;2023-04-01T01:03:17;0.77;;;0.32;;
7783;SDS011;19359;51.402;6.778;2023-04-01T01:05:59;3.15;;;0.35;;
7783;SDS011;19359;51.402;6.778;2023-04-01T01:08:45;1.38;;;0.20;;
7783;SDS011;19359;51.402;6.778;2023-04-01T01:11:29;0.28;;;0.20;;
7783;SDS011;19359;51.402;6.778;2023-04-01T01:14:04;0.10;;;0.10;;
7783;SDS011;19359;51.402;6.778;2023-04-01T01:16:39;0.52;;;0.35;;
7783;SDS011;19359;51.402;6.778;2023-04-01T01:19:15;1.98;;;0.40;;
7783;SDS011;19359;51.402;6.778;2023-04-01T01:22:01;2.60;;;0.60;;
7783;SDS011;19359;51.402;6.778;2023-04-01T01:24:43;0.88;;;0.40;;
7783;SDS011;19359;51.402;6.778;2023-04-01T01:27:21;2.80;;;0.50;;
7783;SDS011;19359;51.402;6.778;2023-04-01T01:33:00;0.43;;;0.20;;
7783;SDS011;19359;51.402;6.778;2023-04-01T01:35:43;0.20;;;0.20;;
7783;SDS011;19359;51.402;6.778;2023-04-01T01:38:13;1.27;;;0.32;;
7783;SDS011;19359;51.402;6.778;2023-04-01T01:40:42;0.60;;;0.22;;
7783;SDS011;19359;51.402;6.778;2023-04-01T01:43:12;2.17;;;0.30;;
7783;SDS011;19359;51.402;6.778;2023-04-01T01:45:44;8.23;;;7.57;;
7783;SDS011;19359;51.402;6.778;2023-04-01T01:48:15;0.80;;;0.70;;
7783;SDS011;19359;51.402;6.778;2023-04-01T01:50:44;7.28;;;2.90;;
7783;SDS011;19359;51.402;6.778;2023-04-01T01:53:12;0.25;;;0.10;;
7783;SDS011;19359;51.402;6.778;2023-04-01T01:55:41;0.10;;;0.10;;
7783;SDS011;19359;51.402;6.778;2023-04-01T01:58:10;0.10;;;0.10;;
7783;SDS011;19359;51.402;6.778;2023-04-01T02:00:40;2.08;;;0.68;;
7783;SDS011;19359;51.402;6.778;2023-04-01T02:03:09;0.40;;;0.40;;
7783;SDS011;19359;51.402;6.778;2023-04-01T02:05:38;1.05;;;0.30;;
7783;SDS011;19359;51.402;6.778;2023-04-01T02:08:07;1.27;;;0.85;;
7783;SDS011;19359;51.402;6.778;2023-04-01T02:10:37;0.43;;;0.30;;
7783;SDS011;19359;51.402;6.778;2023-04-01T02:13:10;1.67;;;0.32;;
7783;SDS011;19359;51.402;6.778;2023-04-01T02:15:44;1.33;;;0.20;;
7783;SDS011;19359;51.402;6.778;2023-04-01T02:18:14;1.83;;;0.30;;
7783;SDS011;19359;51.402;6.778;2023-04-01T02:20:44;22.80;;;21.40;;
7783;SDS011;19359;51.402;6.778;2023-04-01T02:23:12;2.72;;;0.30;;
7783;SDS011;19359;51.402;6.778;2023-04-01T02:25:40;3.00;;;0.50;;
7783;SDS011;19359;51.402;6.778;2023-04-01T02:28:08;2.25;;;0.98;;
7783;SDS011;19359;51.402;6.778;2023-04-01T02:30:37;1.70;;;0.40;;
7783;SDS011;19359;51.402;6.778;2023-04-01T02:33:06;1.65;;;0.30;;
7783;SDS011;19359;51.402;6.778;2023-04-01T02:35:34;3.33;;;0.20;;
7783;SDS011;19359;51.402;6.778;2023-04-01T02:38:02;2.63;;;0.35;;
7783;SDS011;19359;51.402;6.778;2023-04-01T02:40:39;0.38;;;0.30;;
7783;SDS011;19359;51.402;6.778;2023-04-01T02:43:07;4.82;;;0.40;;
7783;SDS011;19359;51.402;6.778;2023-04-01T02:45:34;1.00;;;0.38;;
7783;SDS011;19359;51.402;6.778;2023-04-01T02:48:01;0.60;;;0.47;;
7783;SDS011;19359;51.402;6.778;2023-04-01T02:50:28;3.60;;;0.95;;
7783;SDS011;19359;51.402;6.778;2023-04-01T02:52:55;1.40;;;1.02;;
7783;SDS011;19359;51.402;6.778;2023-04-01T02:55:21;2.13;;;0.70;;
7783;SDS011;19359;51.402;6.778;2023-04-01T02:57:49;1.33;;;1.10;;
7783;SDS011;19359;51.402;6.778;2023-04-01T03:00:16;2.55;;;1.58;;
7783;SDS011;19359;51.402;6.778;2023-04-01T03:02:44;4.97;;;1.00;;
7783;SDS011;19359;51.402;6.778;2023-04-01T03:05:10;1.75;;;1.00;;
7783;SDS011;19359;51.402;6.778;2023-04-01T03:07:37;3.33;;;1.40;;
7783;SDS011;19359;51.402;6.778;2023-04-01T03:10:05;2.03;;;1.58;;
7783;SDS011;19359;51.402;6.778;2023-04-01T03:12:33;2.50;;;1.50;;
7783;SDS011;19359;51.402;6.778;2023-04-01T03:15:01;2.53;;;1.38;;
7783;SDS011;19359;51.402;6.778;2023-04-01T03:17:28;5.28;;;1.00;;
7783;SDS011;19359;51.402;6.778;2023-04-01T03:19:55;1.88;;;0.95;;
7783;SDS011;19359;51.402;6.778;2023-04-01T03:22:22;1.75;;;1.00;;
7783;SDS011;19359;51.402;6.778;2023-04-01T03:24:49;4.47;;;1.05;;
7783;SDS011;19359;51.402;6.778;2023-04-01T03:27:16;1.40;;;0.47;;
7783;SDS011;19359;51.402;6.778;2023-04-01T03:29:43;0.55;;;0.55;;
7783;SDS011;19359;51.402;6.778;2023-04-01T03:32:11;1.50;;;0.55;;
7783;SDS011;19359;51.402;6.778;2023-04-01T03:34:38;2.08;;;0.43;;
7783;SDS011;19359;51.402;6.778;2023-04-01T03:37:05;2.40;;;0.50;;
7783;SDS011;19359;51.402;6.778;2023-04-01T03:39:32;1.70;;;0.93;;
7783;SDS011;19359;51.402;6.778;2023-04-01T03:42:00;1.30;;;0.70;;
7783;SDS011;19359;51.402;6.778;2023-04-01T03:44:30;0.68;;;0.40;;
7783;SDS011;19359;51.402;6.778;2023-04-01T03:46:57;2.80;;;0.63;;
7783;SDS011;19359;51.402;6.778;2023-04-01T03:49:25;0.90;;;0.52;;
7783;SDS011;19359;51.402;6.778;2023-04-01T03:51:52;0.93;;;0.47;;
7783;SDS011;19359;51.402;6.778;2023-04-01T03:54:19;1.15;;;0.50;;
7783;SDS011;19359;51.402;6.778;2023-04-01T03:56:46;0.98;;;0.40;;
7783;SDS011;19359;51.402;6.778;2023-04-01T03:59:13;1.17;;;0.50;;
7783;SDS011;19359;51.402;6.778;2023-04-01T04:01:40;4.65;;;0.70;;
7783;SDS011;19359;51.402;6.778;2023-04-01T04:04:07;0.77;;;0.52;;
7783;SDS011;19359;51.402;6.778;2023-04-01T04:06:39;0.50;;;0.50;;
7783;SDS011;19359;51.402;6.778;2023-04-01T04:09:06;0.80;;;0.80;;
7783;SDS011;19359;51.402;6.778;2023-04-01T04:11:33;0.50;;;0.30;;
7783;SDS011;19359;51.402;6.778;2023-04-01T04:14:00;0.50;;;0.50;;
7783;SDS011;19359;51.402;6.778;2023-04-01T04:16:27;2.15;;;0.50;;
7783;SDS011;19359;51.402;6.778;2023-04-01T04:18:54;2.05;;;0.50;;
7783;SDS011;19359;51.402;6.778;2023-04-01T04:21:21;0.63;;;0.63;;
7783;SDS011;19359;51.402;6.778;2023-04-01T04:23:49;1.00;;;0.60;;
7783;SDS011;19359;51.402;6.778;2023-04-01T04:26:16;0.47;;;0.32;;
7783;SDS011;19359;51.402;6.778;2023-04-01T04:28:43;0.50;;;0.50;;
7783;SDS011;19359;51.402;6.778;2023-04-01T04:31:10;0.47;;;0.47;;
7783;SDS011;19359;51.402;6.778;2023-04-01T04:33:37;0.60;;;0.60;;
7783;SDS011;19359;51.402;6.778;2023-04-01T04:36:04;1.55;;;0.65;;
7783;SDS011;19359;51.402;6.778;2023-04-01T04:38:31;0.60;;;0.60;;
7783;SDS011;19359;51.402;6.778;2023-04-01T04:41:00;3.67;;;1.10;;
7783;SDS011;19359;51.402;6.778;2023-04-01T04:43:26;1.20;;;0.80;;
7783;SDS011;19359;51.402;6.778;2023-04-01T04:45:53;0.90;;;0.90;;
7783;SDS011;19359;51.402;6.778;2023-04-01T04:48:20;2.17;;;0.80;;
7783;SDS011;19359;51.402;6.778;2023-04-01T04:50:48;1.13;;;1.00;;
7783;SDS011;19359;51.402;6.778;2023-04-01T04:53:16;2.33;;;1.00;;
7783;SDS011;19359;51.402;6.778;2023-04-01T04:55:44;2.20;;;0.90;;
7783;SDS011;19359;51.402;6.778;2023-04-01T04:58:13;2.05;;;0.82;;
7783;SDS011;19359;51.402;6.778;2023-04-01T05:00:40;0.80;;;0.80;;
7783;SDS011;19359;51.402;6.778;2023-04-01T05:03:07;1.75;;;0.98;;
7783;SDS011;19359;51.402;6.778;2023-04-01T05:05:34;1.33;;;0.63;;
7783;SDS011;19359;51.402;6.778;2023-04-01T05:08:01;1.63;;;1.00;;
7783;SDS011;19359;51.402;6.778;2023-04-01T05:10:28;1.70;;;1.00;;
7783;SDS011;19359;51.402;6.778;2023-04-01T05:12:55;2.33;;;0.82;;
7783;SDS011;19359;51.402;6.778;2023-04-01T05:15:23;1.55;;;0.82;;
7783;SDS011;19359;51.402;6.778;2023-04-01T05:17:50;3.28;;;1.17;;
7783;SDS011;19359;51.402;6.778;2023-04-01T05:20:17;1.13;;;1.10;;
7783;SDS011;19359;51.402;6.778;2023-04-01T05:22:44;1.95;;;1.33;;
7783;SDS011;19359;51.402;6.778;2023-04-01T05:25:11;2.00;;;1.85;;
7783;SDS011;19359;51.402;6.778;2023-04-01T05:27:38;2.03;;;1.90;;
7783;SDS011;19359;51.402;6.778;2023-04-01T05:30:05;2.97;;;1.80;;
7783;SDS011;19359;51.402;6.778;2023-04-01T05:32:34;2.40;;;2.20;;
7783;SDS011;19359;51.402;6.778;2023-04-01T05:35:00;1.65;;;1.55;;
7783;SDS011;19359;51.402;6.778;2023-04-01T05:37:27;1.45;;;1.35;;
7783;SDS011;19359;51.402;6.778;2023-04-01T05:39:54;2.78;;;1.60;;
7783;SDS011;19359;51.402;6.778;2023-04-01T05:42:21;5.47;;;2.75;;
7783;SDS011;19359;51.402;6.778;2023-04-01T05:44:48;2.97;;;1.98;;
7783;SDS011;19359;51.402;6.778;2023-04-01T05:47:15;2.88;;;2.67;;
7783;SDS011;19359;51.402;6.778;2023-04-01T05:49:43;3.65;;;2.45;;
7783;SDS011;19359;51.402;6.778;2023-04-01T05:52:10;3.75;;;3.13;;
7783;SDS011;19359;51.402;6.778;2023-04-01T05:54:37;3.22;;;2.35;;
7783;SDS011;19359;51.402;6.778;2023-04-01T05:57:04;3.13;;;2.83;;
7783;SDS011;19359;51.402;6.778;2023-04-01T05:59:30;7.38;;;4.32;;
7783;SDS011;19359;51.402;6.778;2023-04-01T06:01:57;6.72;;;5.13;;
7783;SDS011;19359;51.402;6.778;2023-04-01T06:04:24;5.28;;;4.35;;
7783;SDS011;19359;51.402;6.778;2023-04-01T06:06:53;5.13;;;4.32;;
7783;SDS011;19359;51.402;6.778;2023-04-01T06:09:21;4.25;;;3.85;;
7783;SDS011;19359;51.402;6.778;2023-04-01T06:11:57;7.25;;;6.00;;
7783;SDS011;19359;51.402;6.778;2023-04-01T06:14:40;5.53;;;4.55;;
7783;SDS011;19359;51.402;6.778;2023-04-01T06:17:20;8.82;;;6.72;;
7783;SDS011;19359;51.402;6.778;2023-04-01T06:19:54;13.02;;;7.55;;
7783;SDS011;19359;51.402;6.778;2023-04-01T06:22:33;11.50;;;7.32;;
7783;SDS011;19359;51.402;6.778;2023-04-01T06:25:24;12.38;;;6.57;;
7783;SDS011;19359;51.402;6.778;2023-04-01T06:28:02;6.75;;;5.53;;
7783;SDS011;19359;51.402;6.778;2023-04-01T06:30:45;11.32;;;7.75;;
7783;SDS011;19359;51.402;6.778;2023-04-01T06:33:21;7.28;;;5.50;;
7783;SDS011;19359;51.402;6.778;2023-04-01T06:36:04;6.00;;;4.63;;
7783;SDS011;19359;51.402;6.778;2023-04-01T06:38:44;5.47;;;4.93;;
7783;SDS011;19359;51.402;6.778;2023-04-01T06:44:15;12.73;;;8.35;;
7783;SDS011;19359;51.402;6.778;2023-04-01T06:46:50;13.18;;;6.68;;
7783;SDS011;19359;51.402;6.778;2023-04-01T06:52:16;13.60;;;8.43;;
7783;SDS011;19359;51.402;6.778;2023-04-01T06:54:52;10.48;;;7.13;;
7783;SDS011;19359;51.402;6.778;2023-04-01T06:57:28;3.65;;;3.22;;
7783;SDS011;19359;51.402;6.778;2023-04-01T06:59:58;5.25;;;3.53;;
7783;SDS011;19359;51.402;6.778;2023-04-01T07:02:29;4.65;;;4.30;;
7783;SDS011;19359;51.402;6.778;2023-04-01T07:05:03;5.10;;;3.38;;
7783;SDS011;19359;51.402;6.778;2023-04-01T07:07:33;4.40;;;4.00;;
7783;SDS011;19359;51.402;6.778;2023-04-01T07:10:05;2.40;;;2.30;;
7783;SDS011;19359;51.402;6.778;2023-04-01T07:12:38;3.47;;;2.80;;
7783;SDS011;19359;51.402;6.778;2023-04-01T07:15:12;2.40;;;2.25;;
7783;SDS011;19359;51.402;6.778;2023-04-01T07:17:45;2.25;;;2.15;;
7783;SDS011;19359;51.402;6.778;2023-04-01T07:20:13;2.22;;;2.05;;
7783;SDS011;19359;51.402;6.778;2023-04-01T07:22:46;2.58;;;2.38;;
7783;SDS011;19359;51.402;6.778;2023-04-01T07:25:17;2.28;;;2.15;;
7783;SDS011;19359;51.402;6.778;2023-04-01T07:27:46;1.73;;;1.73;;
7783;SDS011;19359;51.402;6.778;2023-04-01T07:30:14;1.60;;;1.50;;
7783;SDS011;19359;51.402;6.778;2023-04-01T07:32:44;1.77;;;1.77;;
7783;SDS011;19359;51.402;6.778;2023-04-01T07:35:21;1.60;;;1.60;;
7783;SDS011;19359;51.402;6.778;2023-04-01T07:40:48;1.13;;;1.02;;
7783;SDS011;19359;51.402;6.778;2023-04-01T07:43:34;1.40;;;1.40;;
7783;SDS011;19359;51.402;6.778;2023-04-01T07:46:18;2.58;;;1.70;;
7783;SDS011;19359;51.402;6.778;2023-04-01T07:48:56;1.92;;;1.83;;
7783;SDS011;19359;51.402;6.778;2023-04-01T07:51:31;2.65;;;2.42;;
7783;SDS011;19359;51.402;6.778;2023-04-01T07:54:06;2.47;;;2.38;;
7783;SDS011;19359;51.402;6.778;2023-04-01T07:56:41;3.10;;;2.97;;
7783;SDS011;19359;51.402;6.778;2023-04-01T07:59:12;4.70;;;3.83;;
7783;SDS011;19359;51.402;6.778;2023-04-01T08:01:45;4.50;;;3.97;;
7783;SDS011;19359;51.402;6.778;2023-04-01T08:04:23;6.65;;;3.50;;
7783;SDS011;19359;51.402;6.778;2023-04-01T08:06:58;4.30;;;4.00;;
7783;SDS011;19359;51.402;6.778;2023-04-01T08:09:29;3.47;;;3.22;;
7783;SDS011;19359;51.402;6.778;2023-04-01T08:12:07;6.40;;;4.93;;
7783;SDS011;19359;51.402;6.778;2023-04-01T08:14:47;4.15;;;3.80;;
7783;SDS011;19359;51.402;6.778;2023-04-01T08:17:22;6.80;;;4.63;;
7783;SDS011;19359;51.402;6.778;2023-04-01T08:20:02;5.60;;;5.20;;
7783;SDS011;19359;51.402;6.778;2023-04-01T08:22:50;8.27;;;5.82;;
7783;SDS011;19359;51.402;6.778;2023-04-01T08:25:21;9.73;;;4.90;;
7783;SDS011;19359;51.402;6.778;2023-04-01T08:27:53;4.60;;;3.97;;
7783;SDS011;19359;51.402;6.778;2023-04-01T08:30:26;5.03;;;4.63;;
7783;SDS011;19359;51.402;6.778;2023-04-01T08:33:00;3.72;;;3.28;;
7783;SDS011;19359;51.402;6.778;2023-04-01T08:35:36;4.78;;;4.47;;
7783;SDS011;19359;51.402;6.778;2023-04-01T08:38:09;4.97;;;4.60;;
7783;SDS011;19359;51.402;6.778;2023-04-01T08:40:50;5.32;;;4.93;;
7783;SDS011;19359;51.402;6.778;2023-04-01T08:43:35;5.13;;;4.65;;
7783;SDS011;19359;51.402;6.778;2023-04-01T08:46:38;7.57;;;4.80;;
7783;SDS011;19359;51.402;6.778;2023-04-01T08:49:37;6.72;;;4.90;;
7783;SDS011;19359;51.402;6.778;2023-04-01T08:52:26;5.10;;;4.60;;
7783;SDS011;19359;51.402;6.778;2023-04-01T08:57:45;4.40;;;4.00;;
7783;SDS011;19359;51.402;6.778;2023-04-01T09:00:25;6.75;;;4.38;;
7783;SDS011;19359;51.402;6.778;2023-04-01T09:06:03;5.95;;;3.88;;
7783;SDS011;19359;51.402;6.778;2023-04-01T09:08:48;6.30;;;5.00;;
7783;SDS011;19359;51.402;6.778;2023-04-01T09:11:30;6.43;;;4.78;;
7783;SDS011;19359;51.402;6.778;2023-04-01T09:17:07;6.80;;;5.68;;
7783;SDS011;19359;51.402;6.778;2023-04-01T09:20:03;7.55;;;5.90;;
7783;SDS011;19359;51.402;6.778;2023-04-01T09:22:48;6.85;;;4.70;;
7783;SDS011;19359;51.402;6.778;2023-04-01T09:25:26;11.27;;;6.75;;
7783;SDS011;19359;51.402;6.778;2023-04-01T09:28:07;7.82;;;5.97;;
7783;SDS011;19359;51.402;6.778;2023-04-01T09:30:40;10.10;;;6.85;;
7783;SDS011;19359;51.402;6.778;2023-04-01T09:33:50;9.20;;;6.57;;
7783;SDS011;19359;51.402;6.778;2023-04-01T09:36:38;7.65;;;6.07;;
7783;SDS011;19359;51.402;6.778;2023-04-01T09:39:18;5.32;;;4.70;;
7783;SDS011;19359;51.402;6.778;2023-04-01T09:42:06;8.80;;;6.03;;
7783;SDS011;19359;51.402;6.778;2023-04-01T09:44:43;8.70;;;7.20;;
7783;SDS011;19359;51.402;6.778;2023-04-01T09:47:19;8.63;;;7.20;;
7783;SDS011;19359;51.402;6.778;2023-04-01T09:50:03;9.68;;;7.88;;
7783;SDS011;19359;51.402;6.778;2023-04-01T09:52:47;9.60;;;7.38;;
7783;SDS011;19359;51.402;6.778;2023-04-01T09:55:34;6.18;;;5.53;;
7783;SDS011;19359;51.402;6.778;2023-04-01T10:04:45;13.90;;;9.30;;
7783;SDS011;19359;51.402;6.778;2023-04-01T10:07:40;11.07;;;7.22;;
7783;SDS011;19359;51.402;6.778;2023-04-01T10:13:48;7.65;;;5.85;;
7783;SDS011;19359;51.402;6.778;2023-04-01T10:19:49;13.05;;;8.85;;
7783;SDS011;19359;51.402;6.778;2023-04-01T10:25:49;12.48;;;8.85;;
7783;SDS011;19359;51.402;6.778;2023-04-01T10:32:01;9.63;;;6.95;;
7783;SDS011;19359;51.402;6.778;2023-04-01T10:34:48;12.45;;;8.65;;
7783;SDS011;19359;51.402;6.778;2023-04-01T10:40:51;7.35;;;6.38;;
7783;SDS011;19359;51.402;6.778;2023-04-01T10:43:50;15.18;;;7.93;;
7783;SDS011;19359;51.402;6.778;2023-04-01T10:53:02;25.13;;;14.85;;
7783;SDS011;19359;51.402;6.778;2023-04-01T10:56:15;16.52;;;8.73;;
7783;SDS011;19359;51.402;6.778;2023-04-01T10:59:15;23.35;;;18.85;;
7783;SDS011;19359;51.402;6.778;2023-04-01T11:02:30;36.38;;;25.10;;
7783;SDS011;19359;51.402;6.778;2023-04-01T11:05:26;59.58;;;30.83;;
7783;SDS011;19359;51.402;6.778;2023-04-01T11:11:39;22.35;;;11.02;;
7783;SDS011;19359;51.402;6.778;2023-04-01T11:14:40;17.30;;;12.18;;
7783;SDS011;19359;51.402;6.778;2023-04-01T11:20:42;15.20;;;10.82;;
7783;SDS011;19359;51.402;6.778;2023-04-01T11:23:37;19.85;;;11.18;;
7783;SDS011;19359;51.402;6.778;2023-04-01T11:26:18;14.95;;;10.38;;
7783;SDS011;19359;51.402;6.778;2023-04-01T11:32:14;13.20;;;9.88;;
7783;SDS011;19359;51.402;6.778;2023-04-01T11:35:01;12.45;;;9.35;;
7783;SDS011;19359;51.402;6.778;2023-04-01T11:37:46;17.50;;;9.23;;
7783;SDS011;19359;51.402;6.778;2023-04-01T11:40:27;10.27;;;8.38;;
7783;SDS011;19359;51.402;6.778;2023-04-01T11:43:01;11.63;;;9.80;;
7783;SDS011;19359;51.402;6.778;2023-04-01T11:45:36;14.10;;;9.55;;
7783;SDS011;19359;51.402;6.778;2023-04-01T11:48:19;13.65;;;10.10;;
7783;SDS011;19359;51.402;6.778;2023-04-01T11:51:04;13.70;;;9.20;;
7783;SDS011;19359;51.402;6.778;2023-04-01T11:53:36;14.98;;;9.77;;
7783;SDS011;19359;51.402;6.778;2023-04-01T11:56:13;15.82;;;8.93;;
7783;SDS011;19359;51.402;6.778;2023-04-01T11:59:02;15.80;;;10.23;;
7783;SDS011;19359;51.402;6.778;2023-04-01T12:01:45;8.07;;;7.28;;
7783;SDS011;19359;51.402;6.778;2023-04-01T12:04:23;12.65;;;9.05;;
7783;SDS011;19359;51.402;6.778;2023-04-01T12:07:06;8.75;;;7.03;;
7783;SDS011;19359;51.402;6.778;2023-04-01T12:09:47;5.50;;;5.00;;
7783;SDS011;19359;51.402;6.778;2023-04-01T12:12:25;8.85;;;6.93;;
7783;SDS011;19359;51.402;6.778;2023-04-01T12:15:13;9.38;;;7.10;;
7783;SDS011;19359;51.402;6.778;2023-04-01T12:17:52;8.65;;;7.30;;
7783;SDS011;19359;51.402;6.778;2023-04-01T12:20:29;13.32;;;8.48;;
7783;SDS011;19359;51.402;6.778;2023-04-01T12:23:08;9.68;;;7.70;;
7783;SDS011;19359;51.402;6.778;2023-04-01T12:25:56;7.10;;;5.82;;
7783;SDS011;19359;51.402;6.778;2023-04-01T12:28:46;5.47;;;4.78;;
7783;SDS011;19359;51.402;6.778;2023-04-01T12:31:27;6.80;;;5.80;;
7783;SDS011;19359;51.402;6.778;2023-04-01T12:37:15;7.93;;;6.50;;
7783;SDS011;19359;51.402;6.778;2023-04-01T12:39:59;6.10;;;5.50;;
7783;SDS011;19359;51.402;6.778;2023-04-01T12:42:52;5.15;;;4.63;;
7783;SDS011;19359;51.402;6.778;2023-04-01T12:45:31;7.95;;;4.78;;
7783;SDS011;19359;51.402;6.778;2023-04-01T12:48:12;5.82;;;5.18;;
7783;SDS011;19359;51.402;6.778;2023-04-01T12:51:05;6.35;;;5.72;;
7783;SDS011;19359;51.402;6.778;2023-04-01T12:57:04;9.07;;;7.05;;
7783;SDS011;19359;51.402;6.778;2023-04-01T12:59:47;6.10;;;5.20;;
7783;SDS011;19359;51.402;6.778;2023-04-01T13:02:36;6.18;;;5.57;;
7783;SDS011;19359;51.402;6.778;2023-04-01T13:05:15;9.63;;;5.15;;
7783;SDS011;19359;51.402;6.778;2023-04-01T13:08:05;7.63;;;6.05;;
7783;SDS011;19359;51.402;6.778;2023-04-01T13:10:47;7.68;;;5.78;;
7783;SDS011;19359;51.402;6.778;2023-04-01T13:16:42;9.02;;;6.15;;
7783;SDS011;19359;51.402;6.778;2023-04-01T13:19:16;8.77;;;5.43;;
7783;SDS011;19359;51.402;6.778;2023-04-01T13:21:50;6.03;;;5.40;;
7783;SDS011;19359;51.402;6.778;2023-04-01T13:24:30;8.63;;;6.90;;
7783;SDS011;19359;51.402;6.778;2023-04-01T13:27:08;8.13;;;5.50;;
7783;SDS011;19359;51.402;6.778;2023-04-01T13:29:41;11.60;;;6.85;;
7783;SDS011;19359;51.402;6.778;2023-04-01T13:32:24;9.13;;;6.68;;
7783;SDS011;19359;51.402;6.778;2023-04-01T13:35:01;7.50;;;6.25;;
7783;SDS011;19359;51.402;6.778;2023-04-01T13:37:44;10.52;;;6.60;;
7783;SDS011;19359;51.402;6.778;2023-04-01T13:40:28;8.50;;;7.03;;
7783;SDS011;19359;51.402;6.778;2023-04-01T13:43:07;6.20;;;5.68;;
7783;SDS011;19359;51.402;6.778;2023-04-01T13:45:42;10.52;;;5.85;;
7783;SDS011;19359;51.402;6.778;2023-04-01T13:48:29;7.47;;;6.70;;
7783;SDS011;19359;51.402;6.778;2023-04-01T13:51:16;9.20;;;7.28;;
7783;SDS011;19359;51.402;6.778;2023-04-01T13:56:48;5.95;;;4.65;;
7783;SDS011;19359;51.402;6.778;2023-04-01T13:59:34;7.40;;;5.57;;
7783;SDS011;19359;51.402;6.778;2023-04-01T14:05:14;6.32;;;5.72;;
7783;SDS011;19359;51.402;6.778;2023-04-01T14:07:56;10.77;;;6.55;;
7783;SDS011;19359;51.402;6.778;2023-04-01T14:10:36;6.55;;;5.90;;
7783;SDS011;19359;51.402;6.778;2023-04-01T14:13:11;7.45;;;5.10;;
7783;SDS011;19359;51.402;6.778;2023-04-01T14:15:50;12.43;;;5.68;;
7783;SDS011;19359;51.402;6.778;2023-04-01T14:21:27;5.90;;;5.25;;
7783;SDS011;19359;51.402;6.778;2023-04-01T14:24:09;6.50;;;5.80;;
7783;SDS011;19359;51.402;6.778;2023-04-01T14:26:57;6.25;;;5.65;;
7783;SDS011;19359;51.402;6.778;2023-04-01T14:29:47;5.57;;;4.72;;
7783;SDS011;19359;51.402;6.778;2023-04-01T14:32:27;5.25;;;4.75;;
7783;SDS011;19359;51.402;6.778;2023-04-01T14:37:58;3.90;;;3.60;;
7783;SDS011;19359;51.402;6.778;2023-04-01T14:40:47;4.50;;;3.70;;
7783;SDS011;19359;51.402;6.778;2023-04-01T14:43:23;4.82;;;4.47;;
7783;SDS011;19359;51.402;6.778;2023-04-01T14:46:22;4.70;;;4.30;;
7783;SDS011;19359;51.402;6.778;2023-04-01T14:49:02;4.30;;;4.00;;
7783;SDS011;19359;51.402;6.778;2023-04-01T14:51:31;4.30;;;4.00;;
7783;SDS011;19359;51.402;6.778;2023-04-01T14:54:02;3.15;;;3.05;;
7783;SDS011;19359;51.402;6.778;2023-04-01T14:56:35;4.07;;;3.80;;
7783;SDS011;19359;51.402;6.778;2023-04-01T14:59:07;3.28;;;3.10;;
7783;SDS011;19359;51.402;6.778;2023-04-01T15:01:37;3.10;;;2.90;;
7783;SDS011;19359;51.402;6.778;2023-04-01T15:04:18;3.58;;;3.30;;
7783;SDS011;19359;51.402;6.778;2023-04-01T15:07:04;2.97;;;2.78;;
7783;SDS011;19359;51.402;6.778;2023-04-01T15:09:50;2.22;;;2.13;;
7783;SDS011;19359;51.402;6.778;2023-04-01T15:12:26;3.38;;;3.15;;
7783;SDS011;19359;51.402;6.778;2023-04-01T15:15:04;3.13;;;2.92;;
7783;SDS011;19359;51.402;6.778;2023-04-01T15:17:54;3.35;;;2.88;;
7783;SDS011;19359;51.402;6.778;2023-04-01T15:23:33;4.30;;;3.90;;
7783;SDS011;19359;51.402;6.778;2023-04-01T15:26:12;3.38;;;3.15;;
7783;SDS011;19359;51.402;6.778;2023-04-01T15:28:42;3.50;;;3.20;;
7783;SDS011;19359;51.402;6.778;2023-04-01T15:31:18;3.60;;;3.22;;
7783;SDS011;19359;51.402;6.778;2023-04-01T15:33:55;5.18;;;4.28;;
7783;SDS011;19359;51.402;6.778;2023-04-01T15:36:35;5.53;;;4.15;;
7783;SDS011;19359;51.402;6.778;2023-04-01T15:39:12;3.88;;;3.13;;
7783;SDS011;19359;51.402;6.778;2023-04-01T15:41:43;3.92;;;3.63;;
7783;SDS011;19359;51.402;6.778;2023-04-01T15:44:26;2.90;;;2.70;;
7783;SDS011;19359;51.402;6.778;2023-04-01T15:47:08;4.30;;;1.85;;
7783;SDS011;19359;51.402;6.778;2023-04-01T15:50:12;2.40;;;2.05;;
7783;SDS011;19359;51.402;6.778;2023-04-01T15:53:11;1.70;;;1.60;;
7783;SDS011;19359;51.402;6.778;2023-04-01T15:55:46;1.90;;;1.80;;
7783;SDS011;19359;51.402;6.778;2023-04-01T15:58:30;2.20;;;2.10;;
7783;SDS011;19359;51.402;6.778;2023-04-01T16:01:09;2.30;;;2.20;;
7783;SDS011;19359;51.402;6.778;2023-04-01T16:03:50;2.67;;;2.47;;
7783;SDS011;19359;51.402;6.778;2023-04-01T16:06:31;2.65;;;1.88;;
7783;SDS011;19359;51.402;6.778;2023-04-01T16:09:16;2.72;;;2.47;;
7783;SDS011;19359;51.402;6.778;2023-04-01T16:11:55;1.92;;;1.83;;
7783;SDS011;19359;51.402;6.778;2023-04-01T16:14:31;1.80;;;1.70;;
7783;SDS011;19359;51.402;6.778;2023-04-01T16:17:07;4.18;;;2.00;;
7783;SDS011;19359;51.402;6.778;2023-04-01T16:19:41;1.85;;;1.75;;
7783;SDS011;19359;51.402;6.778;2023-04-01T16:22:19;6.47;;;3.35;;
7783;SDS011;19359;51.402;6.778;2023-04-01T16:24:53;2.63;;;2.42;;
7783;SDS011;19359;51.402;6.778;2023-04-01T16:27:27;3.13;;;3.03;;
7783;SDS011;19359;51.402;6.778;2023-04-01T16:30:00;2.28;;;2.17;;
7783;SDS011;19359;51.402;6.778;2023-04-01T16:32:44;4.63;;;4.22;;
7783;SDS011;19359;51.402;6.778;2023-04-01T16:35:21;3.47;;;2.85;;
7783;SDS011;19359;51.402;6.778;2023-04-01T16:37:55;2.47;;;2.38;;
7783;SDS011;19359;51.402;6.778;2023-04-01T16:40:37;3.42;;;3.22;;
7783;SDS011;19359;51.402;6.778;2023-04-01T16:43:12;3.08;;;2.50;;
7783;SDS011;19359;51.402;6.778;2023-04-01T16:45:47;3.42;;;3.22;;
7783;SDS011;19359;51.402;6.778;2023-04-01T16:48:25;7.93;;;4.13;;
7783;SDS011;19359;51.402;6.778;2023-04-01T16:51:00;4.43;;;4.05;;
7783;SDS011;19359;51.402;6.778;2023-04-01T16:53:34;4.53;;;4.20;;
7783;SDS011;19359;51.402;6.778;2023-04-01T16:56:11;4.47;;;4.10;;
7783;SDS011;19359;51.402;6.778;2023-04-01T16:58:46;4.35;;;3.97;;
7783;SDS011;19359;51.402;6.778;2023-04-01T17:01:26;3.70;;;3.40;;
7783;SDS011;19359;51.402;6.778;2023-04-01T17:03:57;4.85;;;4.55;;
7783;SDS011;19359;51.402;6.778;2023-04-01T17:06:28;4.03;;;3.83;;
7783;SDS011;19359;51.402;6.778;2023-04-01T17:09:07;4.35;;;4.05;;
7783;SDS011;19359;51.402;6.778;2023-04-01T17:11:55;4.60;;;4.30;;
7783;SDS011;19359;51.402;6.778;2023-04-01T17:14:28;5.35;;;4.85;;
7783;SDS011;19359;51.402;6.778;2023-04-01T17:17:06;3.88;;;3.60;;